Time;durP1;ratioP1;P1;durP2;ratioP2;P2;SDS_P1;SDS_P2;PMS_P1;PMS_P2;Temp;Humidity;BMP_temperature;BMP_pressure;BME280_temperature;BME280_humidity;BME280_pressure;Samples;Min_cycle;Max_cycle;Signal;HPM_P1;HPM_P2
2023/08/30 00:01:42;;;;;;;28.48;15.88;;;;;;;;;;12872052;23;20318;-70
2023/08/30 00:06:42;;;;;;;21.88;13.70;;;;;;;;;;12885598;23;19997;-70
2023/08/30 00:11:42;;;;;;;23.30;13.85;;;;;;;;;;12885864;23;20295;-70
2023/08/30 00:16:42;;;;;;;23.30;13.50;;;;;;;;;;12838436;23;19993;-70
2023/08/30 00:21:44;;;;;;;23.83;15.23;;;;;;;;;;12885953;23;19992;-70
2023/08/30 00:26:44;;;;;;;22.92;13.70;;;;;;;;;;12838382;23;19989;-70
2023/08/30 00:31:44;;;;;;;19.92;12.20;;;;;;;;;;12885671;23;20004;-70
2023/08/30 00:36:45;;;;;;;24.90;12.15;;;;;;;;;;12885607;23;19985;-70
2023/08/30 00:41:45;;;;;;;20.63;10.95;;;;;;;;;;12838474;23;20001;-70
2023/08/30 00:46:45;;;;;;;27.60;10.27;;;;;;;;;;12885015;23;20218;-70
2023/08/30 00:51:46;;;;;;;16.80;9.63;;;;;;;;;;12885438;23;19999;-70
2023/08/30 00:56:46;;;;;;;18.00;10.30;;;;;;;;;;12885037;23;20258;-70
2023/08/30 01:01:48;;;;;;;20.63;9.27;;;;;;;;;;12870185;23;20012;-70
2023/08/30 01:06:48;;;;;;;14.45;8.88;;;;;;;;;;12884621;23;20000;-70
2023/08/30 01:11:54;;;;;;;19.80;8.75;;;;;;;;;;12884885;23;20218;-71
2023/08/30 01:16:57;;;;;;;18.35;9.43;;;;;;;;;;12884553;23;20283;-71
2023/08/30 01:22:16;;;;;;;17.45;9.10;;;;;;;;;;12884492;23;20047;-70
2023/08/30 01:27:17;;;;;;;17.60;9.82;;;;;;;;;;12884465;23;19984;-70
2023/08/30 01:32:17;;;;;;;18.75;9.82;;;;;;;;;;12884306;23;20005;-70
2023/08/30 01:37:18;;;;;;;15.15;8.60;;;;;;;;;;12884443;23;19989;-71
2023/08/30 01:42:22;;;;;;;17.88;9.57;;;;;;;;;;12836919;23;20004;-71
2023/08/30 01:47:23;;;;;;;31.48;11.32;;;;;;;;;;12884325;23;19993;-71
2023/08/30 01:52:24;;;;;;;24.77;9.57;;;;;;;;;;12884010;23;20035;-70
2023/08/30 01:57:24;;;;;;;19.65;10.18;;;;;;;;;;12883825;23;19989;-71
2023/08/30 02:02:28;;;;;;;18.73;10.05;;;;;;;;;;12866760;23;20009;-71
2023/08/30 02:07:33;;;;;;;24.65;10.50;;;;;;;;;;12883787;23;20517;-71
2023/08/30 02:12:36;;;;;;;19.75;10.07;;;;;;;;;;12883680;23;20060;-71
2023/08/30 02:17:37;;;;;;;18.77;10.55;;;;;;;;;;12883730;23;20171;-71
2023/08/30 02:22:37;;;;;;;21.00;9.85;;;;;;;;;;12836289;23;19996;-71
2023/08/30 02:27:38;;;;;;;26.50;9.97;;;;;;;;;;12883615;23;19989;-71
2023/08/30 02:32:38;;;;;;;24.20;10.53;;;;;;;;;;12883282;23;20084;-71
2023/08/30 02:37:40;;;;;;;22.90;11.90;;;;;;;;;;12883351;23;20045;-71
2023/08/30 02:42:40;;;;;;;21.27;12.07;;;;;;;;;;12884827;23;20292;-71
2023/08/30 02:47:40;;;;;;;20.95;12.57;;;;;;;;;;12883412;23;19988;-70
2023/08/30 02:52:40;;;;;;;21.85;10.73;;;;;;;;;;12883088;23;20060;-70
2023/08/30 02:57:41;;;;;;;18.08;9.75;;;;;;;;;;12883404;23;20262;-70
2023/08/30 03:02:41;;;;;;;19.30;11.60;;;;;;;;;;12835592;23;20012;-70
2023/08/30 03:07:41;;;;;;;15.95;10.55;;;;;;;;;;12883327;23;20039;-71
2023/08/30 03:12:41;;;;;;;16.53;10.20;;;;;;;;;;12882769;23;20015;-71
2023/08/30 03:17:42;;;;;;;16.50;10.07;;;;;;;;;;12883120;23;20200;-71
2023/08/30 03:22:42;;;;;;;18.17;10.48;;;;;;;;;;12882979;23;19992;-71
2023/08/30 03:27:45;;;;;;;16.88;10.60;;;;;;;;;;12882649;23;19984;-71
2023/08/30 03:32:46;;;;;;;21.92;11.93;;;;;;;;;;12882845;23;19996;-70
2023/08/30 03:37:46;;;;;;;20.13;11.95;;;;;;;;;;12882429;23;19989;-71
2023/08/30 03:42:46;;;;;;;18.23;11.20;;;;;;;;;;12884047;23;19995;-71
2023/08/30 03:47:46;;;;;;;18.13;10.75;;;;;;;;;;12835255;23;20125;-71
2023/08/30 03:52:47;;;;;;;21.92;12.63;;;;;;;;;;12882294;23;19997;-70
2023/08/30 03:57:47;;;;;;;17.40;12.13;;;;;;;;;;12882143;23;20042;-71
2023/08/30 04:02:47;;;;;;;20.67;11.63;;;;;;;;;;12863296;23;20008;-71
2023/08/30 04:07:47;;;;;;;21.17;12.70;;;;;;;;;;12882398;23;20020;-70
2023/08/30 04:12:48;;;;;;;19.45;11.63;;;;;;;;;;12882066;23;20063;-71
2023/08/30 04:17:48;;;;;;;19.58;10.85;;;;;;;;;;12881741;23;20049;-70
2023/08/30 04:22:48;;;;;;;18.92;10.25;;;;;;;;;;12883600;23;19999;-70
2023/08/30 04:27:48;;;;;;;21.75;10.85;;;;;;;;;;12885565;23;20067;-70
2023/08/30 04:32:49;;;;;;;13.57;9.37;;;;;;;;;;12885479;23;20003;-70
2023/08/30 04:37:49;;;;;;;13.38;7.80;;;;;;;;;;12884936;23;20008;-70
2023/08/30 04:42:49;;;;;;;15.93;8.77;;;;;;;;;;12884985;23;20008;-69
2023/08/30 04:47:50;;;;;;;22.80;9.45;;;;;;;;;;12882955;23;19988;-70
2023/08/30 04:52:50;;;;;;;15.57;8.27;;;;;;;;;;12883620;23;19997;-69
2023/08/30 04:57:50;;;;;;;13.77;8.50;;;;;;;;;;12882044;23;19991;-69
2023/08/30 05:02:50;;;;;;;26.27;9.60;;;;;;;;;;12862107;23;20172;-70
2023/08/30 05:07:51;;;;;;;19.80;8.83;;;;;;;;;;12881834;23;20020;-69
2023/08/30 05:12:51;;;;;;;15.57;8.60;;;;;;;;;;12883527;23;20008;-70
2023/08/30 05:17:52;;;;;;;18.55;8.75;;;;;;;;;;12884222;23;20247;-69
2023/08/30 05:22:52;;;;;;;20.92;8.65;;;;;;;;;;12883702;23;19992;-70
2023/08/30 05:27:52;;;;;;;15.68;6.97;;;;;;;;;;12883644;23;20087;-69
2023/08/30 05:32:52;;;;;;;13.25;7.47;;;;;;;;;;12883183;23;20194;-70
2023/08/30 05:37:53;;;;;;;11.30;6.47;;;;;;;;;;12883631;23;20035;-70
2023/08/30 05:42:54;;;;;;;14.07;7.23;;;;;;;;;;12883788;23;20227;-70
2023/08/30 05:47:55;;;;;;;18.83;7.22;;;;;;;;;;12883599;23;20016;-69
2023/08/30 05:52:55;;;;;;;13.20;6.97;;;;;;;;;;12835276;23;20007;-69
2023/08/30 05:57:55;;;;;;;17.35;7.10;;;;;;;;;;12883356;23;20044;-70
2023/08/30 06:02:56;;;;;;;12.90;6.25;;;;;;;;;;12863533;23;20054;-70
2023/08/30 06:07:57;;;;;;;13.23;6.20;;;;;;;;;;12882910;23;20000;-69
2023/08/30 06:12:57;;;;;;;12.68;5.32;;;;;;;;;;12884060;23;20007;-70
2023/08/30 06:17:58;;;;;;;11.70;6.07;;;;;;;;;;12883525;23;20329;-70
2023/08/30 06:22:59;;;;;;;11.07;5.22;;;;;;;;;;12883185;23;19996;-70
2023/08/30 06:28:01;;;;;;;14.65;5.82;;;;;;;;;;12883031;23;20282;-70
2023/08/30 06:33:01;;;;;;;15.70;5.43;;;;;;;;;;12880786;23;20011;-70
2023/08/30 06:38:01;;;;;;;17.20;8.05;;;;;;;;;;12883496;23;20352;-70
2023/08/30 06:43:02;;;;;;;17.40;5.73;;;;;;;;;;12882879;23;20179;-70
2023/08/30 06:48:03;;;;;;;14.32;5.65;;;;;;;;;;12883246;23;19989;-70
2023/08/30 06:53:03;;;;;;;9.82;5.13;;;;;;;;;;12883162;23;19993;-70
2023/08/30 06:58:03;;;;;;;12.10;4.82;;;;;;;;;;12882934;23;19988;-70
2023/08/30 07:03:04;;;;;;;8.30;3.65;;;;;;;;;;12862961;23;20020;-70
2023/08/30 07:08:04;;;;;;;9.87;3.60;;;;;;;;;;12882734;23;20297;-70
2023/08/30 07:13:10;;;;;;;7.30;3.90;;;;;;;;;;12834811;23;20005;-70
2023/08/30 07:18:10;;;;;;;10.73;3.42;;;;;;;;;;12886111;23;20274;-70
2023/08/30 07:23:10;;;;;;;9.93;3.78;;;;;;;;;;12886828;23;20314;-70
2023/08/30 07:28:11;;;;;;;8.33;3.73;;;;;;;;;;12886527;23;20175;-70
2023/08/30 07:33:11;;;;;;;12.00;3.03;;;;;;;;;;12886659;23;20000;-70
2023/08/30 07:38:11;;;;;;;10.18;3.10;;;;;;;;;;12886462;23;20023;-70
2023/08/30 07:43:12;;;;;;;4.93;3.20;;;;;;;;;;12886436;23;20326;-71
2023/08/30 07:48:12;;;;;;;11.80;3.22;;;;;;;;;;12886686;23;20421;-71
2023/08/30 07:53:12;;;;;;;10.93;2.90;;;;;;;;;;12886442;23;20044;-70
2023/08/30 07:58:13;;;;;;;4.05;2.00;;;;;;;;;;12838815;23;19996;-71
2023/08/30 08:03:13;;;;;;;6.00;2.70;;;;;;;;;;12866176;23;20168;-71
2023/08/30 08:08:14;;;;;;;14.48;3.83;;;;;;;;;;12886200;23;20183;-71
2023/08/30 08:13:14;;;;;;;11.63;3.83;;;;;;;;;;12885601;23;20071;-71
2023/08/30 08:18:15;;;;;;;12.70;3.60;;;;;;;;;;12887886;23;19985;-71
2023/08/30 08:23:15;;;;;;;20.30;3.90;;;;;;;;;;12885929;23;19996;-70
2023/08/30 08:28:17;;;;;;;10.32;3.80;;;;;;;;;;12885127;23;19993;-70
2023/08/30 08:33:17;;;;;;;8.18;3.00;;;;;;;;;;12886433;23;20234;-71
2023/08/30 08:38:18;;;;;;;15.87;3.70;;;;;;;;;;12885568;23;19999;-70
2023/08/30 08:43:19;;;;;;;7.35;3.40;;;;;;;;;;12885589;23;20449;-71
2023/08/30 08:48:19;;;;;;;11.77;3.00;;;;;;;;;;12886023;23;19989;-69
2023/08/30 08:53:19;;;;;;;9.20;3.17;;;;;;;;;;12885060;23;20048;-70
2023/08/30 08:58:19;;;;;;;12.02;3.40;;;;;;;;;;12885327;23;19989;-69
2023/08/30 09:03:21;;;;;;;8.88;2.35;;;;;;;;;;12863295;23;20199;-70
2023/08/30 09:08:21;;;;;;;9.45;2.55;;;;;;;;;;12884764;23;19993;-70
2023/08/30 09:13:22;;;;;;;4.93;2.50;;;;;;;;;;12884601;23;20000;-70
2023/08/30 09:18:27;;;;;;;7.40;2.67;;;;;;;;;;12884487;23;19988;-70
2023/08/30 09:23:27;;;;;;;9.30;2.95;;;;;;;;;;12884365;23;20011;-70
2023/08/30 09:28:28;;;;;;;6.53;3.45;;;;;;;;;;12884214;23;20200;-70
2023/08/30 09:33:32;;;;;;;8.63;3.00;;;;;;;;;;12883922;23;19997;-69
2023/08/30 09:38:32;;;;;;;10.23;2.75;;;;;;;;;;12884140;23;19987;-70
2023/08/30 09:43:34;;;;;;;8.90;3.72;;;;;;;;;;12883520;23;20310;-70
2023/08/30 09:48:34;;;;;;;9.85;3.88;;;;;;;;;;12884115;23;20337;-70
2023/08/30 09:53:37;;;;;;;5.95;2.80;;;;;;;;;;12883820;23;20194;-70
2023/08/30 09:58:38;;;;;;;8.50;3.45;;;;;;;;;;12882036;23;20160;-70
2023/08/30 10:03:39;;;;;;;9.85;2.90;;;;;;;;;;12883699;23;20008;-70
2023/08/30 10:08:40;;;;;;;10.27;3.25;;;;;;;;;;12883463;23;19993;-70
2023/08/30 10:13:42;;;;;;;8.80;2.35;;;;;;;;;;12881971;23;20211;-70
2023/08/30 10:18:43;;;;;;;6.25;2.25;;;;;;;;;;12883040;23;20019;-70
2023/08/30 10:23:44;;;;;;;8.38;3.15;;;;;;;;;;12883650;23;20293;-70
2023/08/30 10:28:44;;;;;;;7.50;2.53;;;;;;;;;;12834631;23;20079;-70
2023/08/30 10:33:55;;;;;;;7.72;2.63;;;;;;;;;;12880020;23;19997;-70
2023/08/30 10:38:55;;;;;;;5.13;2.40;;;;;;;;;;12879235;23;20204;-70
2023/08/30 10:43:55;;;;;;;8.33;3.13;;;;;;;;;;12880689;23;19988;-70
2023/08/30 10:48:57;;;;;;;4.80;2.80;;;;;;;;;;12883282;23;20235;-70
2023/08/30 10:53:58;;;;;;;8.55;2.95;;;;;;;;;;12879243;23;20151;-70
2023/08/30 10:58:58;;;;;;;7.50;2.60;;;;;;;;;;12884470;23;20023;-70
2023/08/30 11:03:59;;;;;;;4.57;2.35;;;;;;;;;;12887449;23;19992;-70
2023/08/30 11:08:59;;;;;;;6.97;2.50;;;;;;;;;;12886653;23;19992;-70
2023/08/30 11:14:18;;;;;;;5.80;2.80;;;;;;;;;;12860380;23;20003;-70
2023/08/30 11:19:18;;;;;;;9.27;3.40;;;;;;;;;;12887159;23;20056;-70
2023/08/30 11:24:18;;;;;;;8.05;3.53;;;;;;;;;;12887339;23;19992;-70
2023/08/30 11:29:18;;;;;;;8.63;3.70;;;;;;;;;;12886750;23;20152;-69
2023/08/30 11:34:22;;;;;;;5.93;3.35;;;;;;;;;;12886402;23;20196;-70
2023/08/30 11:39:23;;;;;;;9.40;4.22;;;;;;;;;;12886533;23;20004;-70
2023/08/30 11:44:23;;;;;;;7.22;4.35;;;;;;;;;;12885946;23;19997;-70
2023/08/30 11:49:24;;;;;;;7.35;3.83;;;;;;;;;;12886434;23;20290;-70
2023/08/30 11:54:24;;;;;;;9.48;4.22;;;;;;;;;;12886259;23;20044;-70
2023/08/30 11:59:24;;;;;;;12.17;4.50;;;;;;;;;;12880948;23;20171;-70
2023/08/30 12:04:24;;;;;;;6.55;4.03;;;;;;;;;;12885344;23;19997;-70
2023/08/30 12:09:31;;;;;;;10.93;3.83;;;;;;;;;;12884822;23;19989;-69
2023/08/30 12:14:35;;;;;;;10.18;4.85;;;;;;;;;;12875738;23;20008;-69
2023/08/30 12:19:35;;;;;;;10.60;4.72;;;;;;;;;;12884820;23;20008;-70
2023/08/30 12:24:44;;;;;;;10.97;4.27;;;;;;;;;;12882885;23;19993;-69
2023/08/30 12:29:45;;;;;;;7.32;4.10;;;;;;;;;;12884130;23;20278;-70
2023/08/30 12:34:45;;;;;;;9.43;4.47;;;;;;;;;;12884174;23;20176;-69
2023/08/30 12:39:45;;;;;;;6.50;3.63;;;;;;;;;;12836401;23;20003;-68
2023/08/30 12:44:46;;;;;;;14.55;4.22;;;;;;;;;;12883896;23;20274;-68
2023/08/30 12:49:46;;;;;;;9.30;4.00;;;;;;;;;;12883816;23;19988;-69
2023/08/30 12:54:47;;;;;;;9.43;4.25;;;;;;;;;;12883766;23;19996;-69
2023/08/30 12:59:48;;;;;;;9.25;4.25;;;;;;;;;;12877319;23;20079;-68
2023/08/30 13:04:48;;;;;;;6.53;4.20;;;;;;;;;;12883309;23;20045;-68
2023/08/30 13:09:48;;;;;;;10.35;4.85;;;;;;;;;;12883761;23;19988;-69
2023/08/30 13:14:48;;;;;;;10.15;4.85;;;;;;;;;;12883034;23;20164;-69
2023/08/30 13:19:49;;;;;;;13.65;4.72;;;;;;;;;;12883278;23;20000;-68
2023/08/30 13:24:49;;;;;;;8.70;4.90;;;;;;;;;;12883362;23;19993;-67
2023/08/30 13:29:50;;;;;;;16.83;5.80;;;;;;;;;;12883656;23;20569;-69
2023/08/30 13:34:51;;;;;;;11.07;4.70;;;;;;;;;;12882863;23;20060;-71
2023/08/30 13:39:52;;;;;;;6.53;4.68;;;;;;;;;;12883076;23;19980;-70
2023/08/30 13:44:52;;;;;;;9.05;4.75;;;;;;;;;;12882856;23;20287;-69
2023/08/30 13:49:53;;;;;;;6.40;4.32;;;;;;;;;;12882494;23;20014;-70
2023/08/30 13:54:53;;;;;;;10.30;4.93;;;;;;;;;;12882534;23;20238;-69
2023/08/30 13:59:53;;;;;;;12.07;5.03;;;;;;;;;;12875979;23;20011;-69
2023/08/30 14:04:53;;;;;;;9.73;4.10;;;;;;;;;;12882407;23;20199;-69
2023/08/30 14:09:54;;;;;;;6.93;4.05;;;;;;;;;;12882224;23;20229;-70
2023/08/30 14:14:54;;;;;;;9.30;3.78;;;;;;;;;;12883082;23;20052;-69
2023/08/30 14:19:55;;;;;;;8.13;3.40;;;;;;;;;;12882052;23;20004;-69
2023/08/30 14:24:55;;;;;;;8.68;3.88;;;;;;;;;;12882030;23;19997;-68
2023/08/30 14:29:55;;;;;;;5.85;3.05;;;;;;;;;;12881729;23;20033;-69
2023/08/30 14:34:56;;;;;;;7.43;3.27;;;;;;;;;;12881697;23;20274;-69
2023/08/30 14:39:56;;;;;;;4.20;2.60;;;;;;;;;;12882307;23;20004;-68
2023/08/30 14:44:56;;;;;;;6.10;2.72;;;;;;;;;;12881847;23;20178;-69
2023/08/30 14:49:56;;;;;;;7.60;2.50;;;;;;;;;;12882029;23;19993;-70
2023/08/30 14:54:58;;;;;;;6.23;2.40;;;;;;;;;;12883182;23;20250;-86
2023/08/30 14:59:58;;;;;;;5.95;3.17;;;;;;;;;;12872999;23;20028;-71
2023/08/30 15:04:59;;;;;;;12.32;4.72;;;;;;;;;;12883405;23;20197;-70
2023/08/30 15:09:59;;;;;;;8.50;3.13;;;;;;;;;;12882371;23;19999;-70
2023/08/30 15:14:59;;;;;;;5.67;2.80;;;;;;;;;;12882557;23;20004;-71
2023/08/30 15:20:00;;;;;;;7.55;2.63;;;;;;;;;;12882799;23;19988;-71
2023/08/30 15:25:02;;;;;;;8.35;2.60;;;;;;;;;;12882612;23;20012;-71
2023/08/30 15:30:03;;;;;;;10.95;3.20;;;;;;;;;;12870180;23;20248;-71
2023/08/30 15:35:04;;;;;;;8.95;2.72;;;;;;;;;;12882588;23;20022;-71
2023/08/30 15:40:04;;;;;;;8.95;3.25;;;;;;;;;;12886206;23;19996;-71
2023/08/30 15:45:05;;;;;;;9.68;3.80;;;;;;;;;;12886275;23;20283;-72
2023/08/30 15:50:06;;;;;;;8.23;3.05;;;;;;;;;;12885934;23;19996;-70
2023/08/30 15:55:06;;;;;;;8.13;2.53;;;;;;;;;;12886132;23;20001;-72
2023/08/30 16:00:09;;;;;;;8.07;2.95;;;;;;;;;;12864992;23;20103;-71
2023/08/30 16:05:10;;;;;;;8.85;3.58;;;;;;;;;;12885958;23;19992;-72
2023/08/30 16:10:11;;;;;;;13.00;5.15;;;;;;;;;;12886185;23;20043;-71
2023/08/30 16:15:12;;;;;;;3.80;2.38;;;;;;;;;;12886241;23;20218;-70
2023/08/30 16:20:12;;;;;;;13.95;2.85;;;;;;;;;;12887149;23;20048;-71
2023/08/30 16:25:12;;;;;;;9.48;3.28;;;;;;;;;;12885906;23;20271;-71
2023/08/30 16:30:13;;;;;;;7.80;2.00;;;;;;;;;;12886051;23;19992;-71
2023/08/30 16:35:13;;;;;;;4.10;2.10;;;;;;;;;;12885240;23;20310;-71
2023/08/30 16:40:13;;;;;;;13.05;2.35;;;;;;;;;;12885644;23;20195;-71
2023/08/30 16:45:14;;;;;;;5.07;2.03;;;;;;;;;;12885969;23;20267;-71
2023/08/30 16:50:15;;;;;;;6.68;2.67;;;;;;;;;;12884824;23;20223;-70
2023/08/30 16:55:16;;;;;;;9.73;3.03;;;;;;;;;;12885399;23;20282;-71
2023/08/30 17:00:18;;;;;;;10.27;3.13;;;;;;;;;;12876660;23;20184;-70
2023/08/30 17:05:18;;;;;;;15.50;4.60;;;;;;;;;;12884624;23;20008;-70
2023/08/30 17:10:19;;;;;;;9.27;2.50;;;;;;;;;;12884847;23;20172;-71
2023/08/30 17:15:19;;;;;;;7.85;2.45;;;;;;;;;;12884886;23;20032;-71
2023/08/30 17:20:19;;;;;;;9.03;2.83;;;;;;;;;;12884480;23;19992;-72
2023/08/30 17:25:20;;;;;;;9.35;3.08;;;;;;;;;;12884639;23;19984;-71
2023/08/30 17:30:20;;;;;;;7.03;2.70;;;;;;;;;;12884320;23;20308;-71
2023/08/30 17:35:20;;;;;;;10.50;3.27;;;;;;;;;;12884008;23;19996;-71
2023/08/30 17:40:20;;;;;;;7.55;2.83;;;;;;;;;;12883801;23;20035;-71
2023/08/30 17:45:21;;;;;;;8.05;3.08;;;;;;;;;;12836959;23;20000;-71
2023/08/30 17:50:21;;;;;;;9.10;2.97;;;;;;;;;;12884200;23;20046;-72
2023/08/30 17:55:22;;;;;;;7.90;2.92;;;;;;;;;;12883925;23;20027;-72
2023/08/30 18:00:22;;;;;;;6.63;2.40;;;;;;;;;;12874931;23;20008;-70
2023/08/30 18:05:22;;;;;;;7.45;2.28;;;;;;;;;;12864067;23;20000;-74
2023/08/30 18:10:23;;;;;;;7.90;3.25;;;;;;;;;;12864550;23;19996;-75
2023/08/30 18:15:23;;;;;;;8.25;2.55;;;;;;;;;;12862691;23;20016;-71
2023/08/30 18:20:26;;;;;;;12.00;4.00;;;;;;;;;;12862974;23;20326;-76
2023/08/30 18:25:26;;;;;;;6.78;3.00;;;;;;;;;;12861759;23;20047;-73
2023/08/30 18:30:27;;;;;;;6.60;2.67;;;;;;;;;;12861313;23;19996;-73
2023/08/30 18:35:27;;;;;;;8.63;2.95;;;;;;;;;;12859227;23;20545;-70
2023/08/30 18:40:28;;;;;;;9.70;2.83;;;;;;;;;;12860740;23;20040;-72
2023/08/30 18:45:28;;;;;;;7.88;3.45;;;;;;;;;;12862129;23;19996;-77
2023/08/30 18:50:28;;;;;;;10.33;3.63;;;;;;;;;;12814385;23;20263;-72
2023/08/30 18:55:32;;;;;;;12.00;3.08;;;;;;;;;;12862709;23;20577;-72
2023/08/30 19:00:33;;;;;;;8.50;3.45;;;;;;;;;;12852315;23;20012;-72
2023/08/30 19:05:33;;;;;;;13.35;3.33;;;;;;;;;;12861811;23;20004;-74
2023/08/30 19:10:33;;;;;;;8.48;3.38;;;;;;;;;;12862250;23;20366;-71
2023/08/30 19:15:34;;;;;;;15.05;3.85;;;;;;;;;;12866448;23;20302;-72
2023/08/30 19:20:34;;;;;;;11.18;2.97;;;;;;;;;;12865628;23;19996;-72
2023/08/30 19:25:34;;;;;;;10.00;3.45;;;;;;;;;;12866155;23;19997;-75
2023/08/30 19:30:35;;;;;;;9.93;3.40;;;;;;;;;;12864633;23;19997;-75
2023/08/30 19:35:36;;;;;;;9.07;3.15;;;;;;;;;;12865496;23;20464;-72
2023/08/30 19:40:37;;;;;;;4.20;2.33;;;;;;;;;;12817807;23;19993;-75
2023/08/30 19:45:37;;;;;;;7.50;3.07;;;;;;;;;;12869204;23;20294;-87
2023/08/30 19:50:37;;;;;;;11.90;4.17;;;;;;;;;;12817907;23;19989;-72
2023/08/30 19:55:38;;;;;;;7.83;2.77;;;;;;;;;;12863304;23;20210;-76
2023/08/30 20:00:38;;;;;;;13.20;3.20;;;;;;;;;;12813849;23;20024;-75
2023/08/30 20:05:48;;;;;;;6.40;2.92;;;;;;;;;;12864664;23;20043;-76
2023/08/30 20:10:48;;;;;;;8.20;3.03;;;;;;;;;;12864495;23;19996;-81
2023/08/30 20:15:56;;;;;;;9.43;3.60;;;;;;;;;;12864842;23;20071;-74
2023/08/30 20:20:56;;;;;;;11.13;2.85;;;;;;;;;;12867476;23;20005;-75
2023/08/30 20:25:56;;;;;;;16.42;2.83;;;;;;;;;;12816866;23;20032;-72
2023/08/30 20:30:56;;;;;;;8.52;2.70;;;;;;;;;;12865696;23;20226;-76
2023/08/30 20:35:57;;;;;;;9.82;3.15;;;;;;;;;;12867808;23;20008;-77
2023/08/30 20:40:57;;;;;;;7.77;3.33;;;;;;;;;;12822803;23;20004;-82
2023/08/30 20:45:57;;;;;;;6.78;2.95;;;;;;;;;;12869476;23;19992;-81
2023/08/30 20:51:00;;;;;;;12.30;4.10;;;;;;;;;;12868572;23;19997;-81
2023/08/30 20:56:01;;;;;;;11.80;3.10;;;;;;;;;;12873247;23;20051;-79
2023/08/30 21:01:01;;;;;;;5.10;3.40;;;;;;;;;;12863596;23;20024;-79
2023/08/30 21:06:03;;;;;;;7.50;3.00;;;;;;;;;;12873384;23;20530;-76
2023/08/30 21:11:06;;;;;;;11.27;3.17;;;;;;;;;;12872475;23;20253;-75
2023/08/30 21:16:07;;;;;;;11.52;2.83;;;;;;;;;;12872377;23;20035;-75
2023/08/30 21:21:07;;;;;;;7.10;3.10;;;;;;;;;;12880872;23;19996;-75
2023/08/30 21:26:07;;;;;;;6.93;2.80;;;;;;;;;;12879555;23;20282;-72
2023/08/30 21:31:08;;;;;;;6.68;2.92;;;;;;;;;;12880105;23;20370;-74
2023/08/30 21:36:10;;;;;;;10.68;3.35;;;;;;;;;;12880535;23;20039;-75
2023/08/30 21:41:10;;;;;;;7.97;3.55;;;;;;;;;;12881040;23;20015;-75
2023/08/30 21:46:11;;;;;;;13.20;3.80;;;;;;;;;;12858715;23;20003;-75
2023/08/30 21:51:11;;;;;;;6.70;3.22;;;;;;;;;;12881434;23;20199;-75
2023/08/30 21:56:11;;;;;;;10.52;3.10;;;;;;;;;;12882638;23;20011;-75
2023/08/30 22:01:11;;;;;;;7.55;2.95;;;;;;;;;;12833093;23;20020;-75
2023/08/30 22:06:12;;;;;;;7.80;3.22;;;;;;;;;;12880919;23;20039;-75
2023/08/30 22:11:12;;;;;;;10.73;3.33;;;;;;;;;;12880605;23;20182;-75
2023/08/30 22:16:13;;;;;;;11.73;3.03;;;;;;;;;;12884442;23;19996;-75
2023/08/30 22:21:15;;;;;;;8.07;3.55;;;;;;;;;;12884605;23;20302;-75
2023/08/30 22:26:16;;;;;;;7.05;3.15;;;;;;;;;;12884021;23;19993;-75
2023/08/30 22:31:16;;;;;;;7.27;3.20;;;;;;;;;;12883988;23;20000;-75
2023/08/30 22:36:16;;;;;;;5.07;2.03;;;;;;;;;;12884232;23;19985;-75
2023/08/30 22:41:17;;;;;;;6.03;2.08;;;;;;;;;;12884052;23;20060;-75
2023/08/30 22:46:17;;;;;;;4.57;2.28;;;;;;;;;;12884053;23;19997;-74
2023/08/30 22:51:17;;;;;;;4.45;1.95;;;;;;;;;;12883971;23;20187;-73
2023/08/30 22:56:18;;;;;;;9.93;1.80;;;;;;;;;;12836612;23;20282;-73
2023/08/30 23:01:18;;;;;;;6.20;2.05;;;;;;;;;;12870956;23;20017;-73
2023/08/30 23:06:18;;;;;;;5.43;1.98;;;;;;;;;;12883775;23;19989;-75
2023/08/30 23:11:19;;;;;;;7.87;2.27;;;;;;;;;;12860956;23;20099;-73
2023/08/30 23:16:19;;;;;;;7.03;1.83;;;;;;;;;;12883415;23;20031;-74
2023/08/30 23:21:19;;;;;;;7.30;1.88;;;;;;;;;;12883695;23;20035;-72
2023/08/30 23:26:19;;;;;;;6.78;1.90;;;;;;;;;;12883661;23;19993;-73
2023/08/30 23:31:20;;;;;;;5.65;1.83;;;;;;;;;;12883248;23;19997;-72
2023/08/30 23:36:21;;;;;;;4.45;1.67;;;;;;;;;;12883569;23;20295;-73
2023/08/30 23:41:22;;;;;;;6.43;1.90;;;;;;;;;;12883428;23;19992;-73
2023/08/30 23:46:22;;;;;;;5.25;2.13;;;;;;;;;;12883208;23;19992;-73
2023/08/30 23:51:23;;;;;;;4.43;2.05;;;;;;;;;;12883382;23;19996;-73
2023/08/30 23:56:23;;;;;;;8.10;2.35;;;;;;;;;;12883035;23;20023;-73
